createdAt,value
2023-03-25T00:01:09.066Z,8.97
2023-03-25T00:03:42.004Z,8.95
2023-03-25T00:06:10.788Z,8.98
2023-03-25T00:08:37.731Z,8.96
2023-03-25T00:11:05.829Z,8.92
2023-03-25T00:13:33.027Z,9.00
2023-03-25T00:16:00.114Z,8.89
2023-03-25T00:18:33.703Z,8.82
2023-03-25T00:21:05.426Z,8.78
2023-03-25T00:23:32.753Z,8.85
2023-03-25T00:26:00.327Z,8.77
2023-03-25T00:28:33.511Z,8.83
2023-03-25T00:31:07.120Z,8.89
2023-03-25T00:33:35.325Z,8.87
2023-03-25T00:36:04.484Z,8.76
2023-03-25T00:38:34.117Z,8.69
2023-03-25T00:41:17.560Z,8.74
2023-03-25T00:43:44.970Z,8.61
2023-03-25T00:46:11.477Z,8.74
2023-03-25T00:48:38.061Z,8.63
2023-03-25T00:51:07.171Z,8.57
2023-03-25T00:53:34.900Z,8.55
2023-03-25T00:56:04.746Z,8.47
2023-03-25T00:58:31.507Z,8.49
2023-03-25T01:00:58.196Z,8.48
2023-03-25T01:03:28.981Z,8.47
2023-03-25T01:05:57.860Z,8.57
2023-03-25T01:08:25.192Z,8.56
2023-03-25T01:10:54.042Z,8.62
2023-03-25T01:13:21.590Z,8.52
2023-03-25T01:15:50.723Z,8.58
2023-03-25T01:18:17.859Z,8.71
2023-03-25T01:20:44.406Z,8.57
2023-03-25T01:23:11.135Z,8.71
2023-03-25T01:25:38.088Z,8.72
2023-03-25T01:28:05.154Z,8.83
2023-03-25T01:30:32.273Z,8.84
2023-03-25T01:32:58.960Z,8.85
2023-03-25T01:35:25.497Z,8.89
2023-03-25T01:37:54.365Z,8.95
2023-03-25T01:40:23.410Z,8.87
2023-03-25T01:42:50.526Z,8.83
2023-03-25T01:45:21.990Z,8.88
2023-03-25T01:47:54.900Z,8.93
2023-03-25T01:50:22.641Z,8.91
2023-03-25T01:52:51.968Z,8.94
2023-03-25T01:55:20.360Z,8.87
2023-03-25T01:57:48.485Z,8.81
2023-03-25T02:00:16.497Z,8.77
2023-03-25T02:02:43.510Z,8.71
2023-03-25T02:05:19.376Z,8.65
2023-03-25T02:07:48.931Z,8.53
2023-03-25T02:10:17.692Z,8.39
2023-03-25T02:12:45.873Z,8.44
2023-03-25T02:15:16.359Z,8.48
2023-03-25T02:17:58.848Z,8.45
2023-03-25T02:21:03.335Z,8.41
2023-03-25T02:23:41.778Z,8.34
2023-03-25T02:26:50.093Z,8.42
2023-03-25T02:29:36.934Z,8.34
2023-03-25T02:32:27.120Z,8.31
2023-03-25T02:35:00.002Z,8.26
2023-03-25T02:38:01.910Z,8.28
2023-03-25T02:40:44.141Z,8.22
2023-03-25T02:43:18.660Z,8.22
2023-03-25T02:45:51.389Z,8.21
2023-03-25T02:48:36.622Z,8.26
2023-03-25T02:51:12.125Z,8.21
2023-03-25T02:53:41.534Z,8.26
2023-03-25T02:56:12.422Z,8.28
2023-03-25T02:58:40.312Z,8.34
2023-03-25T03:01:09.965Z,8.29
2023-03-25T03:03:37.248Z,8.19
2023-03-25T03:06:06.650Z,8.31
2023-03-25T03:08:49.385Z,8.37
2023-03-25T03:11:28.056Z,8.38
2023-03-25T03:14:18.339Z,8.28
2023-03-25T03:17:03.594Z,8.24
2023-03-25T03:19:46.557Z,8.34
2023-03-25T03:22:27.120Z,8.27
2023-03-25T03:25:01.939Z,8.22
2023-03-25T03:27:54.083Z,8.18
2023-03-25T03:30:38.289Z,8.25
2023-03-25T03:33:16.616Z,8.32
2023-03-25T03:35:50.499Z,8.28
2023-03-25T03:38:21.396Z,8.25
2023-03-25T03:40:55.774Z,8.22
2023-03-25T03:43:31.509Z,8.31
2023-03-25T03:46:06.967Z,8.34
2023-03-25T03:48:40.226Z,8.25
2023-03-25T03:51:12.161Z,8.38
2023-03-25T03:53:47.640Z,8.29
2023-03-25T03:56:25.896Z,8.32
2023-03-25T03:58:58.451Z,8.29
2023-03-25T04:01:54.027Z,8.20
2023-03-25T04:04:29.636Z,8.24
2023-03-25T04:07:10.532Z,8.15
2023-03-25T04:09:55.082Z,8.26
2023-03-25T04:12:26.158Z,8.17
2023-03-25T04:14:54.433Z,8.21
2023-03-25T04:17:21.950Z,8.09
2023-03-25T04:19:49.012Z,8.22
2023-03-25T04:22:19.695Z,8.28
2023-03-25T04:24:49.731Z,8.13
2023-03-25T04:27:16.900Z,8.18
2023-03-25T04:29:47.844Z,8.25
2023-03-25T04:32:15.113Z,8.27
2023-03-25T04:34:41.988Z,8.25
2023-03-25T04:37:08.400Z,8.20
2023-03-25T04:39:34.968Z,8.16
2023-03-25T04:42:01.825Z,8.03
2023-03-25T04:44:33.308Z,7.99
2023-03-25T04:47:02.558Z,7.86
2023-03-25T04:49:28.971Z,7.92
2023-03-25T04:51:56.854Z,7.95
2023-03-25T04:54:23.850Z,7.96
2023-03-25T04:56:52.074Z,7.90
2023-03-25T04:59:21.302Z,7.83
2023-03-25T05:01:48.073Z,7.85
2023-03-25T05:04:17.645Z,7.80
2023-03-25T05:06:47.345Z,7.76
2023-03-25T05:09:19.911Z,7.66
2023-03-25T05:11:46.578Z,7.58
2023-03-25T05:14:15.344Z,7.55
2023-03-25T05:16:42.565Z,7.56
2023-03-25T05:19:09.381Z,7.53
2023-03-25T05:21:38.060Z,7.51
2023-03-25T05:24:08.318Z,7.54
2023-03-25T05:26:35.190Z,7.45
2023-03-25T05:29:05.185Z,7.51
2023-03-25T05:31:31.900Z,7.45
2023-03-25T05:33:58.505Z,7.54
2023-03-25T05:36:25.180Z,7.56
2023-03-25T05:38:55.654Z,7.60
2023-03-25T05:41:32.306Z,7.59
2023-03-25T05:44:00.439Z,7.62
2023-03-25T05:46:29.594Z,7.59
2023-03-25T05:48:57.436Z,7.61
2023-03-25T05:51:25.778Z,7.50
2023-03-25T05:53:53.150Z,7.49
2023-03-25T05:56:21.942Z,7.56
2023-03-25T05:58:50.372Z,7.63
2023-03-25T06:01:31.771Z,7.72
2023-03-25T06:04:03.484Z,7.75
2023-03-25T06:06:33.805Z,7.75
2023-03-25T06:09:00.289Z,7.86
2023-03-25T06:11:26.718Z,7.95
2023-03-25T06:13:53.278Z,7.92
2023-03-25T06:16:28.032Z,7.95
2023-03-25T06:19:00.113Z,7.93
2023-03-25T06:21:32.890Z,8.03
2023-03-25T06:24:00.476Z,8.00
2023-03-25T06:26:27.512Z,8.14
2023-03-25T06:28:54.676Z,8.24
2023-03-25T06:31:26.570Z,8.01
2023-03-25T06:33:55.986Z,8.14
2023-03-25T06:36:25.707Z,8.11
2023-03-25T06:38:53.563Z,8.19
2023-03-25T06:41:21.886Z,8.26
2023-03-25T06:43:56.502Z,8.22
2023-03-25T06:46:41.751Z,8.23
2023-03-25T06:49:13.507Z,8.23
2023-03-25T06:51:39.920Z,8.29
2023-03-25T06:54:06.938Z,8.36
2023-03-25T06:56:33.709Z,8.36
2023-03-25T06:59:00.431Z,8.35
2023-03-25T07:01:27.514Z,8.39
2023-03-25T07:03:53.908Z,8.41
2023-03-25T07:06:22.439Z,8.44
2023-03-25T07:08:49.004Z,8.50
2023-03-25T07:11:18.515Z,8.65
2023-03-25T07:13:45.066Z,8.56
2023-03-25T07:16:11.663Z,8.65
2023-03-25T07:18:41.221Z,8.67
2023-03-25T07:21:07.746Z,8.70
2023-03-25T07:23:34.117Z,8.83
2023-03-25T07:26:00.610Z,8.78
2023-03-25T07:28:28.539Z,8.80
2023-03-25T07:30:54.909Z,8.84
2023-03-25T07:33:21.627Z,8.78
2023-03-25T07:35:48.199Z,8.81
2023-03-25T07:38:14.743Z,8.68
2023-03-25T07:40:41.160Z,8.59
2023-03-25T07:43:07.533Z,8.72
2023-03-25T07:45:44.370Z,8.84
2023-03-25T07:48:14.483Z,8.92
2023-03-25T07:50:41.126Z,8.92
2023-03-25T07:53:07.691Z,8.98
2023-03-25T07:55:34.202Z,9.08
2023-03-25T07:58:01.904Z,8.95
2023-03-25T08:00:31.815Z,8.94
2023-03-25T08:02:58.379Z,8.90
2023-03-25T08:05:24.817Z,8.97
2023-03-25T08:07:52.698Z,8.99
2023-03-25T08:10:19.726Z,8.80
2023-03-25T08:12:46.214Z,8.77
2023-03-25T08:15:13.449Z,8.67
2023-03-25T08:17:40.577Z,8.68
2023-03-25T08:20:07.472Z,8.80
2023-03-25T08:22:34.008Z,8.83
2023-03-25T08:25:00.610Z,8.72
2023-03-25T08:27:28.674Z,8.79
2023-03-25T08:29:57.410Z,8.75
2023-03-25T08:32:24.888Z,8.68
2023-03-25T08:34:51.616Z,8.74
2023-03-25T08:37:18.548Z,8.90
2023-03-25T08:39:45.873Z,9.14
2023-03-25T08:42:13.440Z,9.27
2023-03-25T08:44:40.105Z,9.30
2023-03-25T08:47:06.493Z,9.28
2023-03-25T08:49:32.938Z,9.49
2023-03-25T08:52:00.602Z,9.08
2023-03-25T08:54:28.369Z,8.97
2023-03-25T08:56:55.124Z,8.94
2023-03-25T08:59:21.850Z,8.94
2023-03-25T09:01:48.505Z,8.92
2023-03-25T09:04:15.317Z,8.69
2023-03-25T09:06:47.862Z,8.58
2023-03-25T09:09:16.554Z,8.56
2023-03-25T09:11:43.013Z,8.66
2023-03-25T09:14:09.630Z,8.71
2023-03-25T09:16:36.032Z,8.76
2023-03-25T09:19:03.174Z,8.90
2023-03-25T09:21:29.654Z,8.74
2023-03-25T09:23:56.081Z,8.72
2023-03-25T09:26:22.563Z,8.68
2023-03-25T09:28:49.469Z,8.63
2023-03-25T09:31:15.940Z,8.71
2023-03-25T09:33:42.363Z,8.86
2023-03-25T09:36:08.949Z,9.06
2023-03-25T09:38:35.409Z,9.15
2023-03-25T09:41:20.685Z,9.33
2023-03-25T09:44:07.128Z,9.35
2023-03-25T09:46:33.713Z,9.48
2023-03-25T09:49:00.992Z,9.62
2023-03-25T09:51:36.444Z,9.70
2023-03-25T09:54:16.156Z,9.78
2023-03-25T09:56:44.018Z,9.91
2023-03-25T09:59:15.939Z,10.08
2023-03-25T10:01:55.804Z,10.26
2023-03-25T10:04:53.192Z,10.34
2023-03-25T10:07:37.100Z,10.19
2023-03-25T10:10:27.133Z,10.22
2023-03-25T10:13:11.706Z,10.24
2023-03-25T10:15:56.360Z,10.34
2023-03-25T10:18:46.967Z,10.47
2023-03-25T10:21:25.512Z,10.51
2023-03-25T10:24:18.412Z,10.54
2023-03-25T10:26:54.767Z,10.54
2023-03-25T10:29:28.183Z,10.62
2023-03-25T10:31:59.258Z,10.62
2023-03-25T10:34:49.802Z,10.76
2023-03-25T10:37:24.909Z,10.83
2023-03-25T10:39:51.734Z,10.57
2023-03-25T10:42:34.856Z,10.55
2023-03-25T10:45:03.317Z,10.51
2023-03-25T10:47:36.841Z,10.45
2023-03-25T10:50:04.563Z,10.48
2023-03-25T10:52:31.135Z,10.47
2023-03-25T10:54:58.453Z,10.39
2023-03-25T10:57:31.084Z,10.71
2023-03-25T11:00:18.409Z,10.73
2023-03-25T11:02:49.194Z,10.57
2023-03-25T11:05:24.724Z,10.51
2023-03-25T11:07:56.135Z,10.44
2023-03-25T11:10:25.501Z,10.59
2023-03-25T11:12:53.334Z,10.61
2023-03-25T11:15:26.464Z,10.85
2023-03-25T11:18:00.505Z,10.94
2023-03-25T11:20:37.794Z,10.87
2023-03-25T11:23:32.725Z,10.70
2023-03-25T11:26:11.371Z,10.56
2023-03-25T11:28:41.578Z,10.49
2023-03-25T11:31:16.066Z,10.40
2023-03-25T11:33:45.395Z,10.24
2023-03-25T11:36:17.721Z,10.17
2023-03-25T11:38:50.904Z,9.99
2023-03-25T11:41:17.576Z,9.90
2023-03-25T11:43:48.761Z,10.02
2023-03-25T11:46:18.749Z,10.03
2023-03-25T11:48:46.692Z,10.04
2023-03-25T11:51:25.383Z,9.92
2023-03-25T11:54:00.630Z,9.91
2023-03-25T11:56:40.262Z,10.39
2023-03-25T11:59:21.672Z,10.65
2023-03-25T12:01:49.826Z,11.01
2023-03-25T12:04:24.886Z,10.89
2023-03-25T12:07:01.839Z,10.80
2023-03-25T12:09:31.911Z,10.72
2023-03-25T12:12:04.630Z,10.63
2023-03-25T12:14:50.735Z,10.66
2023-03-25T12:17:57.518Z,10.69
2023-03-25T12:20:33.940Z,10.59
2023-03-25T12:23:10.951Z,10.64
2023-03-25T12:25:46.175Z,10.68
2023-03-25T12:28:21.907Z,10.80
2023-03-25T12:30:59.799Z,10.96
2023-03-25T12:34:01.845Z,11.00
2023-03-25T12:37:06.258Z,11.51
2023-03-25T12:39:43.743Z,11.50
2023-03-25T12:42:25.963Z,11.71
2023-03-25T12:45:04.679Z,11.67
2023-03-25T12:47:39.414Z,11.66
2023-03-25T12:50:26.740Z,11.66
2023-03-25T12:53:04.281Z,11.57
2023-03-25T12:55:55.743Z,11.52
2023-03-25T12:58:48.264Z,11.45
2023-03-25T13:01:42.306Z,11.23
2023-03-25T13:04:11.491Z,11.25
2023-03-25T13:06:47.869Z,11.11
2023-03-25T13:09:31.863Z,10.87
2023-03-25T13:12:03.750Z,10.63
2023-03-25T13:14:36.706Z,10.14
2023-03-25T13:17:08.990Z,9.86
2023-03-25T13:19:41.123Z,9.81
2023-03-25T13:22:19.115Z,9.95
2023-03-25T13:24:52.682Z,10.20
2023-03-25T13:27:19.525Z,10.27
2023-03-25T13:29:51.764Z,10.19
2023-03-25T13:32:25.019Z,10.29
2023-03-25T13:35:15.182Z,10.23
2023-03-25T13:37:47.077Z,10.13
2023-03-25T13:40:28.325Z,10.08
2023-03-25T13:43:01.882Z,9.70
2023-03-25T13:45:35.155Z,9.77
2023-03-25T13:48:11.863Z,9.74
2023-03-25T13:50:38.571Z,9.58
2023-03-25T13:53:27.609Z,9.39
2023-03-25T13:56:06.564Z,9.23
2023-03-25T13:58:46.708Z,9.02
2023-03-25T14:01:39.235Z,9.01
2023-03-25T14:04:26.353Z,8.95
2023-03-25T14:07:11.916Z,8.83
2023-03-25T14:09:59.847Z,8.83
2023-03-25T14:12:33.104Z,8.93
2023-03-25T14:15:04.961Z,9.00
2023-03-25T14:17:36.128Z,8.91
2023-03-25T14:20:08.544Z,8.93
2023-03-25T14:22:43.652Z,8.83
2023-03-25T14:25:27.319Z,9.00
2023-03-25T14:27:54.826Z,9.05
2023-03-25T14:30:29.966Z,9.31
2023-03-25T14:32:57.062Z,9.32
2023-03-25T14:35:33.076Z,9.35
2023-03-25T14:38:05.764Z,9.42
2023-03-25T14:40:58.959Z,9.40
2023-03-25T14:43:53.026Z,9.34
2023-03-25T14:46:23.878Z,9.31
2023-03-25T14:49:09.477Z,9.15
2023-03-25T14:51:41.035Z,9.02
2023-03-25T14:54:22.942Z,8.97
2023-03-25T14:57:16.138Z,8.87
2023-03-25T14:59:48.548Z,8.71
2023-03-25T15:02:33.615Z,8.56
2023-03-25T15:05:04.659Z,8.45
2023-03-25T15:07:41.926Z,8.53
2023-03-25T15:10:18.887Z,8.62
2023-03-25T15:12:52.345Z,8.58
2023-03-25T15:15:32.460Z,8.60
2023-03-25T15:18:00.322Z,8.61
2023-03-25T15:20:29.128Z,8.43
2023-03-25T15:23:33.641Z,8.49
2023-03-25T15:26:02.041Z,8.46
2023-03-25T15:28:43.655Z,8.53
2023-03-25T15:31:41.251Z,8.45
2023-03-25T15:34:30.248Z,8.47
2023-03-25T15:37:45.679Z,8.42
2023-03-25T15:40:29.893Z,8.28
2023-03-25T15:43:08.505Z,8.33
2023-03-25T15:45:38.027Z,8.38
2023-03-25T15:48:41.776Z,8.44
2023-03-25T15:51:24.570Z,8.43
2023-03-25T15:54:21.985Z,8.38
2023-03-25T15:56:50.374Z,8.43
2023-03-25T15:59:33.394Z,8.21
2023-03-25T16:02:03.269Z,8.28
2023-03-25T16:04:37.783Z,8.25
2023-03-25T16:07:08.951Z,8.20
2023-03-25T16:09:41.555Z,8.10
2023-03-25T16:12:10.229Z,8.06
2023-03-25T16:14:39.348Z,8.09
2023-03-25T16:17:07.506Z,8.05
2023-03-25T16:19:45.224Z,8.12
2023-03-25T16:22:19.566Z,8.03
2023-03-25T16:24:48.520Z,8.03
2023-03-25T16:27:23.291Z,8.00
2023-03-25T16:29:53.717Z,8.04
2023-03-25T16:32:26.031Z,8.03
2023-03-25T16:34:53.980Z,8.13
2023-03-25T16:37:23.436Z,8.09
2023-03-25T16:39:52.398Z,8.09
2023-03-25T16:42:35.537Z,7.93
2023-03-25T16:45:03.429Z,7.93
2023-03-25T16:47:33.929Z,7.89
2023-03-25T16:50:02.688Z,7.87
2023-03-25T16:52:33.551Z,8.03
2023-03-25T16:55:04.792Z,7.98
2023-03-25T16:57:38.671Z,7.98
2023-03-25T17:00:17.576Z,7.99
2023-03-25T17:02:45.849Z,8.10
2023-03-25T17:05:31.192Z,8.07
2023-03-25T17:08:01.838Z,8.16
2023-03-25T17:10:31.648Z,8.25
2023-03-25T17:13:09.437Z,8.28
2023-03-25T17:15:37.105Z,8.37
2023-03-25T17:18:10.762Z,8.41
2023-03-25T17:20:41.282Z,8.44
2023-03-25T17:23:16.474Z,8.40
2023-03-25T17:25:50.617Z,8.34
2023-03-25T17:28:43.165Z,8.38
2023-03-25T17:31:18.995Z,8.45
2023-03-25T17:33:54.168Z,8.47
2023-03-25T17:36:21.294Z,8.53
2023-03-25T17:38:50.284Z,8.52
2023-03-25T17:41:18.278Z,8.26
2023-03-25T17:43:50.943Z,7.42
2023-03-25T17:46:23.620Z,7.04
2023-03-25T17:48:53.189Z,6.75
2023-03-25T17:51:21.082Z,6.67
2023-03-25T17:53:48.640Z,6.54
2023-03-25T17:56:19.405Z,6.44
2023-03-25T17:58:46.071Z,6.64
2023-03-25T18:01:13.648Z,6.77
2023-03-25T18:03:40.263Z,6.83
2023-03-25T18:06:07.089Z,6.70
2023-03-25T18:08:34.771Z,6.73
2023-03-25T18:11:01.552Z,6.83
2023-03-25T18:13:28.056Z,7.24
2023-03-25T18:15:55.418Z,7.35
2023-03-25T18:18:25.160Z,7.48
2023-03-25T18:20:54.515Z,7.57
2023-03-25T18:23:21.251Z,7.54
2023-03-25T18:25:47.972Z,7.51
2023-03-25T18:28:15.276Z,7.53
2023-03-25T18:30:58.354Z,7.52
2023-03-25T18:33:25.508Z,7.64
2023-03-25T18:35:52.693Z,7.54
2023-03-25T18:38:25.173Z,7.61
2023-03-25T18:40:53.483Z,7.65
2023-03-25T18:43:21.464Z,7.55
2023-03-25T18:45:48.733Z,7.52
2023-03-25T18:48:21.173Z,7.51
2023-03-25T18:50:56.048Z,7.53
2023-03-25T18:53:25.385Z,7.49
2023-03-25T18:55:53.381Z,7.53
2023-03-25T18:58:25.548Z,7.46
2023-03-25T19:00:53.942Z,7.43
2023-03-25T19:03:38.245Z,7.49
2023-03-25T19:06:11.472Z,7.48
2023-03-25T19:08:38.052Z,7.49
2023-03-25T19:11:19.212Z,7.47
2023-03-25T19:13:47.316Z,7.44
2023-03-25T19:16:13.844Z,7.42
2023-03-25T19:18:40.256Z,7.44
2023-03-25T19:21:07.056Z,7.39
2023-03-25T19:23:35.004Z,7.32
2023-03-25T19:26:01.390Z,7.31
2023-03-25T19:28:28.003Z,7.22
2023-03-25T19:30:59.093Z,7.29
2023-03-25T19:33:25.509Z,7.31
2023-03-25T19:35:55.890Z,7.28
2023-03-25T19:38:22.992Z,7.20
2023-03-25T19:40:51.535Z,7.28
2023-03-25T19:43:18.271Z,7.29
2023-03-25T19:45:45.213Z,7.27
2023-03-25T19:48:11.961Z,7.15
2023-03-25T19:50:40.663Z,7.17
2023-03-25T19:53:07.275Z,7.12
2023-03-25T19:55:34.020Z,7.14
2023-03-25T19:58:00.408Z,7.11
2023-03-25T20:00:27.836Z,7.14
2023-03-25T20:03:04.094Z,7.29
2023-03-25T20:05:32.162Z,7.22
2023-03-25T20:07:59.110Z,7.27
2023-03-25T20:10:28.217Z,7.35
2023-03-25T20:12:55.537Z,7.38
2023-03-25T20:15:24.176Z,7.41
2023-03-25T20:17:53.051Z,7.41
2023-03-25T20:20:20.505Z,7.30
2023-03-25T20:22:48.337Z,7.40
2023-03-25T20:25:15.833Z,7.41
2023-03-25T20:27:43.587Z,7.42
2023-03-25T20:30:13.313Z,7.41
2023-03-25T20:32:42.066Z,7.36
2023-03-25T20:35:12.563Z,7.41
2023-03-25T20:37:40.497Z,7.46
2023-03-25T20:40:12.117Z,7.38
2023-03-25T20:42:41.560Z,7.46
2023-03-25T20:45:10.824Z,7.52
2023-03-25T20:47:38.352Z,7.47
2023-03-25T20:50:06.394Z,7.48
2023-03-25T20:52:34.093Z,7.40
2023-03-25T20:55:00.672Z,7.39
2023-03-25T20:57:27.663Z,7.29
2023-03-25T20:59:54.368Z,7.28
2023-03-25T21:02:21.472Z,7.30
2023-03-25T21:04:48.143Z,7.23
2023-03-25T21:07:19.346Z,7.20
2023-03-25T21:09:47.268Z,7.29
2023-03-25T21:12:14.432Z,7.28
2023-03-25T21:14:41.291Z,7.25
2023-03-25T21:17:07.864Z,7.29
2023-03-25T21:19:34.865Z,7.22
2023-03-25T21:22:01.406Z,7.27
2023-03-25T21:24:27.997Z,7.43
2023-03-25T21:26:55.736Z,7.44
2023-03-25T21:29:28.653Z,7.34
2023-03-25T21:31:56.658Z,7.37
2023-03-25T21:34:26.791Z,7.39
2023-03-25T21:36:53.327Z,7.37
2023-03-25T21:39:21.129Z,7.39
2023-03-25T21:41:47.771Z,7.44
2023-03-25T21:44:16.285Z,7.34
2023-03-25T21:46:43.261Z,7.31
2023-03-25T21:49:10.146Z,7.32
2023-03-25T21:51:42.272Z,7.16
2023-03-25T21:54:09.762Z,7.20
2023-03-25T21:56:42.053Z,7.19
2023-03-25T21:59:08.888Z,7.12
2023-03-25T22:01:41.561Z,7.11
2023-03-25T22:04:08.623Z,7.04
2023-03-25T22:06:37.080Z,7.07
2023-03-25T22:09:07.940Z,7.10
2023-03-25T22:11:37.375Z,7.13
2023-03-25T22:14:05.429Z,7.11
2023-03-25T22:16:32.686Z,7.21
2023-03-25T22:18:59.384Z,7.04
2023-03-25T22:21:29.780Z,7.08
2023-03-25T22:23:58.887Z,7.12
2023-03-25T22:26:27.146Z,7.12
2023-03-25T22:28:56.530Z,7.15
2023-03-25T22:31:26.117Z,7.02
2023-03-25T22:34:03.376Z,7.05
2023-03-25T22:36:31.648Z,7.09
2023-03-25T22:38:58.181Z,7.04
2023-03-25T22:41:25.921Z,6.90
2023-03-25T22:43:52.612Z,6.98
2023-03-25T22:46:19.902Z,6.85
2023-03-25T22:48:46.493Z,6.95
2023-03-25T22:51:15.497Z,6.92
2023-03-25T22:53:42.322Z,6.88
2023-03-25T22:56:09.324Z,6.90
2023-03-25T22:58:36.166Z,6.86
2023-03-25T23:01:06.542Z,6.93
2023-03-25T23:03:33.453Z,6.89
2023-03-25T23:06:01.455Z,6.84
2023-03-25T23:08:31.677Z,6.91
2023-03-25T23:11:08.178Z,6.94
2023-03-25T23:13:38.614Z,6.98
2023-03-25T23:16:09.382Z,7.03
2023-03-25T23:18:39.535Z,7.10
2023-03-25T23:21:06.887Z,7.07
2023-03-25T23:23:33.753Z,7.08
2023-03-25T23:26:16.504Z,7.15
2023-03-25T23:28:44.543Z,7.17
2023-03-25T23:31:20.518Z,7.20
2023-03-25T23:33:53.166Z,7.13
2023-03-25T23:36:22.012Z,7.21
2023-03-25T23:38:49.675Z,7.20
2023-03-25T23:41:23.254Z,7.23
2023-03-25T23:43:52.531Z,7.23
2023-03-25T23:46:21.325Z,7.24
2023-03-25T23:48:48.966Z,7.19
2023-03-25T23:51:18.111Z,7.16
2023-03-25T23:53:46.854Z,7.23
2023-03-25T23:56:15.682Z,7.22
2023-03-25T23:58:42.168Z,7.15
